Terminal Aerodrome Forecast
Issued by NWS Caribou, ME

Home | Current Version | Previous Version | Text Only | Print | Product List | Glossary On
Versions: 1 2 3 4 5 6 7 8 9 10 11 12 13 14 15
000
FTUS41 KCAR 241141
TAFCAR
TAF
KCAR 241141Z 2412/2512 26005KT P6SM SCT025
      TEMPO 2412/2414 BKN025
     FM241800 VRB03KT P6SM OVC025
     FM250000 VRB03KT P6SM OVC008
     FM250500 03005KT 3SM -FZRAPL OVC008
     FM250900 03005KT 2SM -FZRA OVC007=

USA.gov is the U.S. government's official web portal to all federal, state and local government web resources and services.